createdAt,value
2022-12-25T00:01:42.093Z,12.60
2022-12-25T00:04:09.001Z,12.59
2022-12-25T00:06:36.241Z,12.59
2022-12-25T00:09:03.132Z,12.58
2022-12-25T00:11:30.109Z,12.58
2022-12-25T00:13:57.033Z,12.59
2022-12-25T00:16:25.799Z,12.59
2022-12-25T00:18:53.208Z,12.59
2022-12-25T00:21:21.140Z,12.59
2022-12-25T00:23:48.601Z,12.59
2022-12-25T00:26:16.858Z,12.60
2022-12-25T00:28:43.838Z,12.61
2022-12-25T00:31:12.402Z,12.57
2022-12-25T00:33:40.300Z,12.57
2022-12-25T00:36:07.766Z,12.58
2022-12-25T00:38:35.675Z,12.61
2022-12-25T00:41:05.817Z,12.61
2022-12-25T00:43:32.694Z,12.60
2022-12-25T00:46:01.052Z,12.60
2022-12-25T00:48:28.593Z,12.60
2022-12-25T00:50:56.310Z,12.59
2022-12-25T00:53:24.095Z,12.56
2022-12-25T00:55:52.371Z,12.52
2022-12-25T00:58:19.361Z,12.47
2022-12-25T01:00:47.442Z,12.43
2022-12-25T01:03:14.502Z,12.40
2022-12-25T01:05:41.611Z,12.37
2022-12-25T01:08:08.499Z,12.35
2022-12-25T01:10:35.334Z,12.35
2022-12-25T01:13:02.231Z,12.34
2022-12-25T01:15:29.274Z,12.32
2022-12-25T01:17:56.159Z,12.29
2022-12-25T01:20:23.003Z,12.25
2022-12-25T01:22:49.834Z,12.23
2022-12-25T01:25:16.681Z,12.22
2022-12-25T01:27:43.523Z,12.22
2022-12-25T01:30:12.048Z,12.21
2022-12-25T01:32:38.980Z,12.19
2022-12-25T01:35:06.204Z,12.17
2022-12-25T01:37:33.042Z,12.17
2022-12-25T01:39:59.887Z,12.17
2022-12-25T01:42:26.874Z,12.15
2022-12-25T01:44:54.090Z,12.16
2022-12-25T01:47:21.003Z,12.14
2022-12-25T01:49:50.381Z,12.12
2022-12-25T01:52:24.433Z,12.13
2022-12-25T01:54:54.678Z,12.13
2022-12-25T01:57:24.719Z,12.10
2022-12-25T01:59:51.984Z,12.10
2022-12-25T02:02:19.178Z,12.09
2022-12-25T02:04:48.642Z,12.11
2022-12-25T02:07:17.102Z,12.11
2022-12-25T02:09:44.475Z,12.10
2022-12-25T02:12:15.225Z,12.11
2022-12-25T02:14:42.081Z,12.10
2022-12-25T02:17:17.544Z,12.09
2022-12-25T02:19:47.540Z,12.07
2022-12-25T02:22:14.695Z,12.05
2022-12-25T02:24:44.620Z,12.04
2022-12-25T02:27:14.648Z,12.06
2022-12-25T02:29:44.786Z,12.09
2022-12-25T02:32:14.931Z,12.11
2022-12-25T02:34:47.255Z,12.14
2022-12-25T02:37:17.193Z,12.15
2022-12-25T02:39:50.329Z,12.18
2022-12-25T02:42:21.709Z,12.21
2022-12-25T02:44:53.323Z,12.22
2022-12-25T02:47:23.307Z,12.22
2022-12-25T02:49:54.745Z,12.21
2022-12-25T02:52:26.139Z,12.18
2022-12-25T02:55:00.469Z,12.18
2022-12-25T02:57:33.032Z,12.17
2022-12-25T03:00:03.881Z,12.15
2022-12-25T03:02:34.807Z,12.14
2022-12-25T03:05:06.791Z,12.14
2022-12-25T03:07:38.228Z,12.14
2022-12-25T03:10:12.172Z,12.13
2022-12-25T03:12:39.781Z,12.12
2022-12-25T03:15:11.680Z,12.11
2022-12-25T03:17:38.689Z,12.10
2022-12-25T03:20:09.335Z,12.11
2022-12-25T03:22:39.796Z,12.09
2022-12-25T03:25:10.125Z,12.08
2022-12-25T03:27:38.159Z,12.10
2022-12-25T03:30:08.673Z,12.11
2022-12-25T03:32:38.585Z,12.09
2022-12-25T03:35:13.010Z,12.10
2022-12-25T03:37:43.510Z,12.10
2022-12-25T03:40:20.636Z,12.10
2022-12-25T03:42:56.486Z,12.09
2022-12-25T03:45:30.404Z,12.13
2022-12-25T03:48:00.837Z,12.14
2022-12-25T03:50:36.623Z,12.14
2022-12-25T03:53:08.782Z,12.12
2022-12-25T03:55:39.514Z,12.13
2022-12-25T03:58:19.661Z,12.14
2022-12-25T04:00:49.625Z,12.12
2022-12-25T04:03:19.577Z,12.11
2022-12-25T04:05:49.538Z,12.11
2022-12-25T04:08:19.485Z,12.10
2022-12-25T04:10:49.412Z,12.07
2022-12-25T04:13:19.351Z,12.07
2022-12-25T04:15:49.309Z,12.07
2022-12-25T04:18:19.329Z,12.09
2022-12-25T04:20:49.284Z,12.10
2022-12-25T04:23:19.226Z,12.12
2022-12-25T04:25:49.175Z,12.15
2022-12-25T04:28:19.086Z,12.16
2022-12-25T04:30:49.002Z,12.18
2022-12-25T04:33:19.022Z,12.21
2022-12-25T04:35:50.080Z,12.21
2022-12-25T04:38:21.190Z,12.22
2022-12-25T04:40:48.054Z,12.22
2022-12-25T04:43:14.905Z,12.24
2022-12-25T04:45:41.807Z,12.26
2022-12-25T04:48:08.670Z,12.25
2022-12-25T04:50:35.588Z,12.28
2022-12-25T04:53:02.464Z,12.30
2022-12-25T04:55:29.270Z,12.28
2022-12-25T04:57:56.102Z,12.28
2022-12-25T05:00:23.081Z,12.27
2022-12-25T05:02:50.117Z,12.26
2022-12-25T05:05:17.296Z,12.26
2022-12-25T05:07:44.179Z,12.23
2022-12-25T05:10:11.345Z,12.22
2022-12-25T05:12:38.376Z,12.20
2022-12-25T05:15:05.416Z,12.19
2022-12-25T05:17:32.316Z,12.19
2022-12-25T05:19:59.199Z,12.20
2022-12-25T05:22:26.090Z,12.20
2022-12-25T05:24:52.938Z,12.20
2022-12-25T05:27:19.943Z,12.20
2022-12-25T05:29:46.814Z,12.21
2022-12-25T05:32:13.654Z,12.21
2022-12-25T05:34:40.495Z,12.21
2022-12-25T05:37:07.350Z,12.22
2022-12-25T05:39:34.198Z,12.22
2022-12-25T05:42:01.359Z,12.22
2022-12-25T05:44:28.279Z,12.22
2022-12-25T05:46:55.171Z,12.23
2022-12-25T05:49:22.229Z,12.21
2022-12-25T05:51:49.088Z,12.22
2022-12-25T05:54:17.130Z,12.24
2022-12-25T05:56:44.094Z,12.23
2022-12-25T05:59:10.946Z,12.23
2022-12-25T06:01:37.879Z,12.25
2022-12-25T06:04:11.915Z,12.26
2022-12-25T06:06:39.545Z,12.26
2022-12-25T06:09:06.792Z,12.24
2022-12-25T06:11:33.587Z,12.23
2022-12-25T06:14:00.507Z,12.21
2022-12-25T06:16:28.780Z,12.19
2022-12-25T06:18:58.561Z,12.17
2022-12-25T06:21:25.510Z,12.16
2022-12-25T06:23:52.464Z,12.14
2022-12-25T06:26:20.131Z,12.14
2022-12-25T06:28:47.224Z,12.13
2022-12-25T06:31:16.541Z,12.12
2022-12-25T06:33:43.761Z,12.14
2022-12-25T06:36:12.307Z,12.15
2022-12-25T06:38:39.211Z,12.16
2022-12-25T06:41:07.552Z,12.15
2022-12-25T06:43:34.665Z,12.14
2022-12-25T06:46:03.758Z,12.16
2022-12-25T06:48:30.800Z,12.17
2022-12-25T06:50:57.697Z,12.20
2022-12-25T06:53:24.648Z,12.23
2022-12-25T06:55:51.531Z,12.24
2022-12-25T06:58:18.439Z,12.25
2022-12-25T07:00:45.396Z,12.26
2022-12-25T07:03:15.958Z,12.29
2022-12-25T07:05:42.888Z,12.32
2022-12-25T07:08:09.823Z,12.33
2022-12-25T07:10:36.691Z,12.33
2022-12-25T07:13:03.523Z,12.31
2022-12-25T07:15:30.333Z,12.29
2022-12-25T07:17:57.186Z,12.28
2022-12-25T07:20:24.084Z,12.28
2022-12-25T07:22:51.070Z,12.27
2022-12-25T07:25:17.923Z,12.28
2022-12-25T07:27:44.836Z,12.27
2022-12-25T07:30:12.153Z,12.28
2022-12-25T07:32:38.974Z,12.29
2022-12-25T07:35:06.164Z,12.26
2022-12-25T07:37:33.158Z,12.28
2022-12-25T07:40:00.042Z,12.27
2022-12-25T07:42:27.063Z,12.28
2022-12-25T07:44:57.548Z,12.27
2022-12-25T07:47:24.381Z,12.28
2022-12-25T07:49:51.255Z,12.29
2022-12-25T07:52:18.196Z,12.31
2022-12-25T07:54:45.212Z,12.31
2022-12-25T07:57:12.062Z,12.30
2022-12-25T07:59:38.958Z,12.30
2022-12-25T08:02:06.122Z,12.31
2022-12-25T08:04:33.253Z,12.31
2022-12-25T08:07:00.251Z,12.32
2022-12-25T08:09:27.478Z,12.31
2022-12-25T08:11:54.294Z,12.29
2022-12-25T08:14:21.131Z,12.29
2022-12-25T08:16:48.128Z,12.29
2022-12-25T08:19:15.337Z,12.28
2022-12-25T08:21:42.198Z,12.29
2022-12-25T08:24:09.059Z,12.29
2022-12-25T08:26:35.886Z,12.27
2022-12-25T08:29:02.782Z,12.30
2022-12-25T08:31:30.112Z,12.32
2022-12-25T08:33:58.295Z,12.32
2022-12-25T08:36:25.437Z,12.33
2022-12-25T08:38:55.723Z,12.33
2022-12-25T08:41:27.702Z,12.35
2022-12-25T08:43:54.588Z,12.35
2022-12-25T08:46:21.615Z,12.37
2022-12-25T08:48:49.303Z,12.38
2022-12-25T08:51:17.999Z,12.42
2022-12-25T08:53:45.882Z,12.43
2022-12-25T08:56:13.095Z,12.46
2022-12-25T08:58:40.288Z,12.48
2022-12-25T09:01:08.053Z,12.50
2022-12-25T09:03:35.584Z,12.53
2022-12-25T09:06:04.272Z,12.56
2022-12-25T09:08:31.369Z,12.58
2022-12-25T09:11:01.842Z,12.58
2022-12-25T09:13:28.665Z,12.58
2022-12-25T09:15:55.569Z,12.57
2022-12-25T09:18:22.505Z,12.55
2022-12-25T09:20:57.603Z,12.54
2022-12-25T09:23:24.424Z,12.53
2022-12-25T09:25:51.306Z,12.53
2022-12-25T09:28:18.181Z,12.53
2022-12-25T09:30:45.170Z,12.55
2022-12-25T09:33:12.134Z,12.58
2022-12-25T09:35:38.991Z,12.59
2022-12-25T09:38:05.790Z,12.61
2022-12-25T09:40:32.752Z,12.63
2022-12-25T09:43:00.940Z,12.62
2022-12-25T09:45:30.308Z,12.61
2022-12-25T09:47:57.468Z,12.62
2022-12-25T09:50:24.644Z,12.64
2022-12-25T09:52:54.602Z,12.67
2022-12-25T09:55:24.417Z,12.67
2022-12-25T09:57:54.539Z,12.69
2022-12-25T10:00:23.006Z,12.69
2022-12-25T10:02:53.058Z,12.67
2022-12-25T10:05:27.877Z,12.67
2022-12-25T10:07:57.797Z,12.65
2022-12-25T10:10:31.022Z,12.66
2022-12-25T10:13:00.974Z,12.69
2022-12-25T10:15:31.009Z,12.71
2022-12-25T10:17:59.379Z,12.74
2022-12-25T10:20:26.588Z,12.72
2022-12-25T10:22:54.735Z,12.74
2022-12-25T10:25:23.580Z,12.72
2022-12-25T10:27:53.468Z,12.75
2022-12-25T10:30:22.030Z,12.78
2022-12-25T10:32:48.994Z,12.77
2022-12-25T10:35:17.061Z,12.77
2022-12-25T10:37:44.924Z,12.77
2022-12-25T10:40:24.966Z,12.78
2022-12-25T10:42:55.793Z,12.77
2022-12-25T10:45:22.708Z,12.79
2022-12-25T10:47:54.389Z,12.79
2022-12-25T10:50:28.914Z,12.78
2022-12-25T10:52:57.328Z,12.79
2022-12-25T10:55:29.045Z,12.80
2022-12-25T10:57:58.150Z,12.80
2022-12-25T11:00:27.041Z,12.81
2022-12-25T11:02:54.376Z,12.82
2022-12-25T11:05:26.108Z,12.83
2022-12-25T11:07:56.200Z,12.82
2022-12-25T11:10:26.230Z,12.86
2022-12-25T11:12:53.388Z,12.88
2022-12-25T11:15:23.498Z,12.89
2022-12-25T11:17:50.289Z,12.90
2022-12-25T11:20:17.751Z,12.91
2022-12-25T11:22:45.729Z,12.91
2022-12-25T11:25:13.906Z,12.90
2022-12-25T11:27:40.967Z,12.89
2022-12-25T11:30:15.876Z,12.91
2022-12-25T11:32:46.644Z,12.93
2022-12-25T11:35:15.136Z,12.96
2022-12-25T11:37:43.837Z,13.00
2022-12-25T11:40:13.896Z,13.05
2022-12-25T11:42:44.410Z,13.06
2022-12-25T11:45:15.540Z,13.07
2022-12-25T11:47:45.555Z,13.08
2022-12-25T11:50:15.511Z,13.09
2022-12-25T11:52:45.176Z,13.11
2022-12-25T11:55:15.174Z,13.12
2022-12-25T11:57:44.084Z,13.14
2022-12-25T12:00:11.933Z,13.18
2022-12-25T12:02:44.284Z,13.24
2022-12-25T12:05:16.878Z,13.27
2022-12-25T12:07:46.835Z,13.31
2022-12-25T12:10:17.902Z,13.34
2022-12-25T12:12:49.179Z,13.34
2022-12-25T12:15:19.262Z,13.35
2022-12-25T12:17:46.162Z,13.34
2022-12-25T12:20:27.813Z,13.33
2022-12-25T12:22:54.816Z,13.35
2022-12-25T12:25:22.245Z,13.37
2022-12-25T12:27:55.553Z,13.39
2022-12-25T12:30:29.020Z,13.39
2022-12-25T12:32:59.442Z,13.39
2022-12-25T12:35:28.574Z,13.40
2022-12-25T12:37:59.856Z,13.40
2022-12-25T12:40:27.129Z,13.42
2022-12-25T12:42:54.649Z,13.42
2022-12-25T12:45:25.744Z,13.41
2022-12-25T12:47:53.241Z,13.42
2022-12-25T12:50:23.098Z,13.40
2022-12-25T12:52:49.924Z,13.39
2022-12-25T12:55:17.082Z,13.38
2022-12-25T12:57:43.920Z,13.37
2022-12-25T13:00:17.144Z,13.39
2022-12-25T13:02:44.418Z,13.37
2022-12-25T13:05:14.377Z,13.41
2022-12-25T13:07:45.202Z,13.46
2022-12-25T13:10:15.159Z,13.47
2022-12-25T13:12:42.054Z,13.51
2022-12-25T13:15:12.686Z,13.53
2022-12-25T13:17:43.059Z,13.56
2022-12-25T13:20:17.925Z,13.60
2022-12-25T13:22:50.674Z,13.62
2022-12-25T13:25:22.020Z,13.63
2022-12-25T13:27:51.910Z,13.62
2022-12-25T13:30:20.161Z,13.62
2022-12-25T13:32:47.078Z,13.60
2022-12-25T13:35:15.831Z,13.57
2022-12-25T13:37:43.307Z,13.54
2022-12-25T13:40:13.309Z,13.51
2022-12-25T13:42:40.295Z,13.52
2022-12-25T13:45:18.761Z,13.50
2022-12-25T13:47:51.381Z,13.50
2022-12-25T13:50:24.922Z,13.53
2022-12-25T13:52:52.107Z,13.53
2022-12-25T13:55:20.274Z,13.53
2022-12-25T13:57:50.213Z,13.53
2022-12-25T14:00:20.670Z,13.51
2022-12-25T14:02:47.643Z,13.52
2022-12-25T14:05:17.821Z,13.52
2022-12-25T14:07:50.631Z,13.52
2022-12-25T14:10:17.678Z,13.52
2022-12-25T14:12:45.406Z,13.54
2022-12-25T14:15:16.212Z,13.55
2022-12-25T14:17:43.198Z,13.55
2022-12-25T14:20:22.043Z,13.54
2022-12-25T14:22:52.444Z,13.53
2022-12-25T14:25:21.303Z,13.51
2022-12-25T14:27:49.270Z,13.51
2022-12-25T14:30:16.727Z,13.48
2022-12-25T14:32:44.893Z,13.46
2022-12-25T14:35:12.268Z,13.46
2022-12-25T14:37:39.510Z,13.45
2022-12-25T14:40:18.963Z,13.43
2022-12-25T14:42:54.707Z,13.40
2022-12-25T14:45:23.044Z,13.39
2022-12-25T14:47:51.495Z,13.39
2022-12-25T14:50:21.393Z,13.36
2022-12-25T14:52:48.235Z,13.34
2022-12-25T14:55:18.296Z,13.32
2022-12-25T14:57:49.085Z,13.33
2022-12-25T15:00:19.036Z,13.34
2022-12-25T15:02:48.173Z,13.31
2022-12-25T15:05:18.288Z,13.32
2022-12-25T15:07:45.129Z,13.31
2022-12-25T15:10:57.390Z,13.28
2022-12-25T15:13:00.331Z,13.26
2022-12-25T15:15:27.462Z,13.24
2022-12-25T15:17:54.946Z,13.23
2022-12-25T15:20:24.822Z,13.21
2022-12-25T15:23:18.299Z,13.19
2022-12-25T15:25:38.457Z,13.19
2022-12-25T15:28:10.847Z,13.19
2022-12-25T15:30:39.841Z,13.16
2022-12-25T15:33:07.406Z,13.14
2022-12-25T15:35:34.684Z,13.11
2022-12-25T15:38:01.531Z,13.11
2022-12-25T15:40:28.360Z,13.12
2022-12-25T15:42:56.587Z,13.12
2022-12-25T15:45:25.110Z,13.12
2022-12-25T15:47:52.022Z,13.13
2022-12-25T15:50:19.608Z,13.12
2022-12-25T15:52:46.868Z,13.12
2022-12-25T15:55:14.135Z,13.10
2022-12-25T15:57:42.328Z,13.08
2022-12-25T16:00:13.631Z,13.03
2022-12-25T16:02:40.769Z,12.99
2022-12-25T16:05:10.445Z,12.96
2022-12-25T16:07:37.811Z,12.93
2022-12-25T16:10:06.341Z,12.91
2022-12-25T16:12:33.223Z,12.87
2022-12-25T16:15:00.121Z,12.87
2022-12-25T16:17:26.977Z,12.87
2022-12-25T16:19:53.810Z,12.87
2022-12-25T16:22:22.214Z,12.89
2022-12-25T16:24:51.388Z,12.89
2022-12-25T16:27:18.734Z,12.87
2022-12-25T16:29:45.631Z,12.88
2022-12-25T16:32:12.685Z,12.85
2022-12-25T16:34:40.694Z,12.83
2022-12-25T16:37:07.704Z,12.82
2022-12-25T16:39:34.687Z,12.81
2022-12-25T16:42:01.528Z,12.78
2022-12-25T16:44:28.379Z,12.78
2022-12-25T16:46:55.274Z,12.76
2022-12-25T16:49:22.243Z,12.75
2022-12-25T16:51:49.042Z,12.74
2022-12-25T16:54:15.830Z,12.72
2022-12-25T16:56:42.690Z,12.70
2022-12-25T16:59:09.638Z,12.70
2022-12-25T17:01:38.441Z,12.69
2022-12-25T17:04:05.437Z,12.68
2022-12-25T17:06:32.371Z,12.67
2022-12-25T17:09:00.242Z,12.66
2022-12-25T17:11:30.315Z,12.66
2022-12-25T17:14:00.090Z,12.66
2022-12-25T17:16:27.717Z,12.67
2022-12-25T17:18:56.031Z,12.65
2022-12-25T17:21:23.833Z,12.65
2022-12-25T17:23:50.986Z,12.66
2022-12-25T17:26:17.861Z,12.67
2022-12-25T17:28:44.704Z,12.66
2022-12-25T17:31:12.381Z,12.68
2022-12-25T17:33:40.172Z,12.69
2022-12-25T17:36:08.810Z,12.69
2022-12-25T17:38:35.711Z,12.69
2022-12-25T17:41:05.519Z,12.68
2022-12-25T17:43:33.388Z,12.66
2022-12-25T17:46:03.231Z,12.65
2022-12-25T17:48:30.147Z,12.64
2022-12-25T17:51:00.623Z,12.65
2022-12-25T17:53:27.682Z,12.62
2022-12-25T17:55:57.544Z,12.59
2022-12-25T17:58:24.803Z,12.60
2022-12-25T18:00:51.687Z,12.62
2022-12-25T18:03:19.381Z,12.60
2022-12-25T18:05:47.037Z,12.59
2022-12-25T18:08:14.636Z,12.60
2022-12-25T18:10:42.726Z,12.60
2022-12-25T18:13:10.290Z,12.58
2022-12-25T18:15:38.209Z,12.57
2022-12-25T18:18:05.534Z,12.54
2022-12-25T18:20:39.386Z,12.52
2022-12-25T18:23:07.006Z,12.51
2022-12-25T18:25:34.016Z,12.52
2022-12-25T18:28:02.743Z,12.51
2022-12-25T18:30:29.966Z,12.47
2022-12-25T18:32:56.868Z,12.43
2022-12-25T18:35:29.304Z,12.44
2022-12-25T18:37:56.560Z,12.42
2022-12-25T18:40:23.601Z,12.40
2022-12-25T18:42:53.826Z,12.40
2022-12-25T18:45:24.977Z,12.38
2022-12-25T18:47:51.965Z,12.35
2022-12-25T18:50:20.450Z,12.33
2022-12-25T18:52:51.585Z,12.33
2022-12-25T18:55:20.386Z,12.34
2022-12-25T18:57:47.851Z,12.34
2022-12-25T19:00:14.827Z,12.32
2022-12-25T19:02:42.065Z,12.33
2022-12-25T19:05:09.535Z,12.34
2022-12-25T19:07:36.942Z,12.33
2022-12-25T19:10:05.697Z,12.30
2022-12-25T19:12:32.584Z,12.28
2022-12-25T19:14:59.407Z,12.30
2022-12-25T19:17:31.507Z,12.29
2022-12-25T19:19:59.070Z,12.23
2022-12-25T19:22:26.868Z,12.22
2022-12-25T19:24:53.757Z,12.22
2022-12-25T19:27:20.604Z,12.24
2022-12-25T19:29:47.479Z,12.19
2022-12-25T19:32:14.371Z,12.20
2022-12-25T19:34:41.233Z,12.19
2022-12-25T19:37:08.109Z,12.20
2022-12-25T19:39:34.901Z,12.20
2022-12-25T19:45:20.065Z,12.20
2022-12-25T19:47:46.914Z,12.19
2022-12-25T19:50:13.853Z,12.18
2022-12-25T19:52:40.736Z,12.14
2022-12-25T19:55:07.829Z,12.16
2022-12-25T19:57:34.825Z,12.11
2022-12-25T20:00:01.731Z,12.07
2022-12-25T20:02:28.642Z,12.09
2022-12-25T20:04:55.572Z,12.10
2022-12-25T20:07:22.437Z,12.12
2022-12-25T20:09:49.299Z,12.09
2022-12-25T20:12:16.554Z,12.09
2022-12-25T20:14:44.323Z,12.11
2022-12-25T20:17:15.735Z,12.10
2022-12-25T20:19:43.277Z,12.09
2022-12-25T20:22:10.088Z,12.05
2022-12-25T20:24:37.581Z,12.03
2022-12-25T20:27:04.469Z,12.03
2022-12-25T20:29:31.338Z,12.04
2022-12-25T20:31:58.304Z,12.06
2022-12-25T20:34:25.308Z,12.07
2022-12-25T20:36:52.177Z,12.04
2022-12-25T20:39:19.002Z,12.01
2022-12-25T20:41:47.740Z,11.98
2022-12-25T20:44:14.829Z,11.97
2022-12-25T20:46:41.987Z,11.95
2022-12-25T20:49:09.139Z,11.93
2022-12-25T20:51:36.124Z,11.90
2022-12-25T20:54:06.084Z,11.91
2022-12-25T20:56:33.111Z,11.91
2022-12-25T20:59:00.642Z,11.89
2022-12-25T21:01:29.669Z,11.90
2022-12-25T21:03:57.257Z,11.92
2022-12-25T21:06:24.392Z,11.93
2022-12-25T21:08:51.311Z,11.94
2022-12-25T21:11:18.485Z,11.94
2022-12-25T21:13:46.381Z,11.97
2022-12-25T21:16:14.424Z,11.98
2022-12-25T21:18:41.346Z,11.98
2022-12-25T21:21:08.745Z,11.96
2022-12-25T21:23:36.986Z,11.91
2022-12-25T21:26:06.936Z,11.89
2022-12-25T21:28:34.616Z,11.90
2022-12-25T21:31:03.237Z,11.91
2022-12-25T21:33:33.290Z,11.90
2022-12-25T21:36:03.242Z,11.90
2022-12-25T21:38:30.136Z,11.89
2022-12-25T21:41:01.842Z,11.89
2022-12-25T21:43:29.731Z,11.92
2022-12-25T21:45:56.657Z,11.95
2022-12-25T21:48:23.571Z,11.98
2022-12-25T21:50:53.691Z,11.99
2022-12-25T21:53:21.076Z,12.01
2022-12-25T21:55:51.068Z,11.98
2022-12-25T21:58:17.936Z,11.94
2022-12-25T22:00:44.809Z,11.92
2022-12-25T22:03:11.874Z,11.93
2022-12-25T22:05:41.903Z,11.92
2022-12-25T22:08:08.926Z,11.89
2022-12-25T22:10:37.213Z,11.86
2022-12-25T22:13:07.258Z,11.87
2022-12-25T22:15:37.275Z,11.88
2022-12-25T22:18:07.364Z,11.89
2022-12-25T22:20:38.197Z,11.92
2022-12-25T22:23:05.191Z,11.98
2022-12-25T22:25:32.094Z,11.98
2022-12-25T22:27:58.960Z,12.00
2022-12-25T22:30:28.147Z,11.99
2022-12-25T22:32:55.557Z,12.02
2022-12-25T22:35:22.478Z,12.00
2022-12-25T22:37:50.017Z,11.98
2022-12-25T22:40:18.289Z,11.95
2022-12-25T22:42:45.226Z,11.95
2022-12-25T22:45:12.337Z,11.88
2022-12-25T22:47:39.609Z,11.85
2022-12-25T22:50:07.125Z,11.82
2022-12-25T22:52:34.038Z,11.82
2022-12-25T22:55:00.945Z,11.81
2022-12-25T22:57:27.963Z,11.79
2022-12-25T22:59:55.092Z,11.78
2022-12-25T23:02:22.165Z,11.77
2022-12-25T23:04:49.257Z,11.74
2022-12-25T23:07:16.374Z,11.76
2022-12-25T23:09:43.784Z,11.79
2022-12-25T23:12:31.064Z,11.74
2022-12-25T23:14:58.235Z,11.71
2022-12-25T23:17:28.272Z,11.71
2022-12-25T23:19:58.420Z,11.73
2022-12-25T23:22:28.392Z,11.73
2022-12-25T23:24:58.527Z,11.75
2022-12-25T23:27:25.478Z,11.72
2022-12-25T23:29:52.408Z,11.71
2022-12-25T23:32:22.854Z,11.67
2022-12-25T23:34:49.695Z,11.65
2022-12-25T23:37:16.714Z,11.68
2022-12-25T23:39:43.672Z,11.67
2022-12-25T23:42:10.582Z,11.70
2022-12-25T23:44:37.474Z,11.69
2022-12-25T23:47:04.641Z,11.68
2022-12-25T23:49:31.542Z,11.67
2022-12-25T23:51:58.379Z,11.68
2022-12-25T23:54:27.495Z,11.66
2022-12-25T23:56:57.738Z,11.66
2022-12-25T23:59:25.726Z,11.67
